Time;durP1;ratioP1;P1;durP2;ratioP2;P2;SDS_P1;SDS_P2;PMS_P1;PMS_P2;Temp;Humidity;BMP_temperature;BMP_pressure;BME280_temperature;BME280_humidity;BME280_pressure;Samples;Min_cycle;Max_cycle;Signal;HPM_P1;HPM_P2
2021/10/27 00:00:44;;;;;;;49.80;32.35;;;128.50;2252.80;;;;;;5093223;28;20039;-78
2021/10/27 00:03:09;;;;;;;58.72;38.40;;;128.80;2252.80;;;;;;5092562;28;20028;-76
2021/10/27 00:05:36;;;;;;;56.80;35.92;;;128.60;2252.80;;;;;;5093634;28;20027;-76
2021/10/27 00:08:02;;;;;;;47.55;30.27;;;128.70;2252.80;;;;;;5093256;28;20126;-76
2021/10/27 00:10:28;;;;;;;53.83;33.47;;;128.40;2252.80;;;;;;5093552;28;20027;-77
2021/10/27 00:12:54;;;;;;;44.50;29.67;;;128.60;2252.80;;;;;;5093399;28;20081;-77
2021/10/27 00:15:20;;;;;;;52.65;34.80;;;128.00;2252.80;;;;;;5093392;28;20406;-78
2021/10/27 00:17:47;;;;;;;62.72;39.10;;;128.30;2252.80;;;;;;5093365;28;20023;-80
2021/10/27 00:20:13;;;;;;;55.67;36.63;;;128.10;2252.80;;;;;;5093378;28;20019;-78
2021/10/27 00:22:40;;;;;;;66.00;42.08;;;128.40;2252.80;;;;;;5092932;28;20426;-77
2021/10/27 00:25:07;;;;;;;45.03;29.70;;;128.30;2252.80;;;;;;5093262;28;20077;-78
2021/10/27 00:27:33;;;;;;;53.65;33.72;;;128.10;2252.80;;;;;;5093062;28;20016;-79
2021/10/27 00:29:59;;;;;;;77.47;45.72;;;128.40;2252.80;;;;;;5093044;28;20024;-79
2021/10/27 00:32:24;;;;;;;65.65;40.42;;;128.40;2252.80;;;;;;5093072;28;20031;-78
2021/10/27 00:34:50;;;;;;;69.05;42.40;;;128.60;2252.80;;;;;;5093016;28;20024;-77
2021/10/27 00:37:16;;;;;;;45.22;27.67;;;128.50;2252.80;;;;;;5092741;28;20115;-78
2021/10/27 00:39:44;;;;;;;42.53;25.63;;;128.20;2252.80;;;;;;5094546;28;20455;-77
2021/10/27 00:42:11;;;;;;;38.53;27.02;;;128.10;2252.80;;;;;;5092839;28;20024;-78
2021/10/27 00:44:37;;;;;;;46.72;28.58;;;128.10;2252.80;;;;;;5093583;28;20345;-76
2021/10/27 00:47:09;;;;;;;39.03;26.23;;;103.20;2227.20;;;;;;5092879;28;20166;-77
2021/10/27 00:49:36;;;;;;;38.42;27.65;;;128.00;2252.80;;;;;;5092921;28;20368;-79
2021/10/27 00:52:05;;;;;;;41.53;27.02;;;128.10;2252.80;;;;;;5093621;28;20020;-76
2021/10/27 00:54:34;;;;;;;45.22;24.77;;;128.00;2252.80;;;;;;5094224;28;20034;-76
2021/10/27 00:57:01;;;;;;;31.48;19.92;;;128.20;2252.80;;;;;;5094035;28;20042;-76
2021/10/27 00:59:28;;;;;;;35.50;19.83;;;128.30;2252.80;;;;;;5092748;28;20042;-76
2021/10/27 01:01:56;;;;;;;32.22;18.77;;;128.20;2252.80;;;;;;5092548;28;20131;-77
2021/10/27 01:04:23;;;;;;;29.67;18.30;;;128.10;2252.80;;;;;;5092363;28;20486;-77
2021/10/27 01:06:50;;;;;;;35.58;20.45;;;128.10;2252.80;;;;;;5092586;28;20025;-78
2021/10/27 01:09:17;;;;;;;32.15;19.20;;;103.20;2227.20;;;;;;5092677;28;20020;-76
2021/10/27 01:11:44;;;;;;;30.52;20.10;;;103.00;2227.20;;;;;;5093239;28;20024;-79
2021/10/27 01:14:11;;;;;;;32.65;18.98;;;103.00;2227.20;;;;;;5092383;28;20020;-77
2021/10/27 01:16:37;;;;;;;31.15;19.38;;;103.10;2227.20;;;;;;5092616;28;20023;-80
2021/10/27 01:19:04;;;;;;;29.20;17.88;;;103.00;2227.20;;;;;;5093448;28;20024;-76
2021/10/27 01:21:31;;;;;;;29.25;18.20;;;103.00;2227.20;;;;;;5093636;28;20452;-76
2021/10/27 01:23:59;;;;;;;33.08;20.92;;;103.00;2227.20;;;;;;5092458;28;20020;-77
2021/10/27 01:26:26;;;;;;;28.88;19.70;;;103.00;2227.20;;;;;;5093157;28;20368;-76
2021/10/27 01:28:52;;;;;;;38.30;21.75;;;103.00;2227.20;;;;;;5092400;28;20027;-76
2021/10/27 01:31:18;;;;;;;27.88;18.25;;;103.00;2227.20;;;;;;5092500;28;20344;-75
2021/10/27 01:33:45;;;;;;;29.00;19.58;;;103.10;2227.20;;;;;;5093175;28;20064;-78
2021/10/27 01:36:16;;;;;;;29.33;18.85;;;103.10;2227.20;;;;;;5092412;28;20028;-76
2021/10/27 01:38:42;;;;;;;29.30;20.75;;;103.10;2227.20;;;;;;5092346;28;20051;-76
2021/10/27 01:41:08;;;;;;;39.65;26.02;;;102.80;2227.20;;;;;;5092048;28;20024;-79
2021/10/27 01:44:06;;;;;;;37.13;23.65;;;102.80;2227.20;;;;;;5093643;28;20455;-76
2021/10/27 01:46:35;;;;;;;40.20;27.30;;;102.70;2227.20;;;;;;5091768;28;20367;-78
2021/10/27 01:49:03;;;;;;;41.13;25.75;;;102.80;2227.20;;;;;;5092114;28;20170;-78
2021/10/27 01:51:29;;;;;;;40.63;27.45;;;103.00;2227.20;;;;;;5092470;28;20743;-77
2021/10/27 01:53:56;;;;;;;53.13;32.33;;;103.20;2227.20;;;;;;5091952;28;20016;-78
2021/10/27 01:56:24;;;;;;;55.20;34.60;;;103.20;2227.20;;;;;;5092219;28;20047;-76
2021/10/27 01:58:50;;;;;;;56.60;35.70;;;103.30;2227.20;;;;;;5091876;28;20020;-77
2021/10/27 02:01:17;;;;;;;57.08;35.63;;;103.30;2227.20;;;;;;5091379;28;20079;-76
2021/10/27 02:03:43;;;;;;;37.65;23.17;;;103.20;2227.20;;;;;;5092111;28;20024;-75
2021/10/27 02:06:09;;;;;;;32.35;20.20;;;103.30;2227.20;;;;;;5092023;28;20016;-78
2021/10/27 02:08:35;;;;;;;30.77;20.95;;;103.20;2227.20;;;;;;5091806;28;20028;-77
2021/10/27 02:11:01;;;;;;;30.23;19.30;;;103.10;2227.20;;;;;;5093084;28;20035;-77
2021/10/27 02:13:27;;;;;;;31.17;17.67;;;103.00;2227.20;;;;;;5091675;28;20024;-78
2021/10/27 02:15:54;;;;;;;32.40;18.35;;;103.10;2227.20;;;;;;5093297;28;20515;-77
2021/10/27 02:18:19;;;;;;;26.15;17.45;;;103.10;2227.20;;;;;;5091938;28;20042;-78
2021/10/27 02:20:45;;;;;;;29.80;17.48;;;103.00;2227.20;;;;;;5091968;28;20449;-75
2021/10/27 02:23:12;;;;;;;27.73;18.38;;;102.90;2227.20;;;;;;5091722;28;20460;-77
2021/10/27 02:25:38;;;;;;;27.30;18.15;;;103.10;2227.20;;;;;;5093774;28;20118;-76
2021/10/27 02:28:04;;;;;;;34.65;20.42;;;102.90;2227.20;;;;;;5095328;28;20055;-75
2021/10/27 02:30:30;;;;;;;35.67;21.63;;;102.90;2227.20;;;;;;5096924;28;20030;-76
2021/10/27 02:32:56;;;;;;;32.30;20.48;;;103.00;2227.20;;;;;;5095356;28;20020;-76
2021/10/27 02:35:22;;;;;;;33.55;19.92;;;103.00;2227.20;;;;;;5096086;28;20395;-75
2021/10/27 02:37:48;;;;;;;30.40;19.15;;;103.00;2227.20;;;;;;5095251;28;20367;-79
2021/10/27 02:40:15;;;;;;;31.20;20.75;;;103.00;2227.20;;;;;;5095242;28;20107;-76
2021/10/27 02:42:41;;;;;;;31.88;19.95;;;103.00;2227.20;;;;;;5094558;28;20034;-75
2021/10/27 02:45:09;;;;;;;33.03;20.00;;;103.00;2227.20;;;;;;5096371;28;20020;-77
2021/10/27 02:47:35;;;;;;;33.88;20.95;;;102.70;2227.20;;;;;;5096336;28;20031;-77
2021/10/27 02:50:02;;;;;;;27.05;19.13;;;102.80;2227.20;;;;;;5094760;28;20027;-75
2021/10/27 02:52:28;;;;;;;29.95;19.27;;;102.80;2227.20;;;;;;5095000;28;20498;-76
2021/10/27 02:54:54;;;;;;;29.70;20.05;;;102.80;2227.20;;;;;;5094901;28;20024;-77
2021/10/27 02:57:19;;;;;;;27.50;17.73;;;102.70;2227.20;;;;;;5095623;28;20020;-75
2021/10/27 02:59:45;;;;;;;27.65;18.13;;;102.70;2227.20;;;;;;5094521;28;20367;-76
2021/10/27 03:02:11;;;;;;;27.08;16.38;;;102.40;2227.20;;;;;;5094685;28;20031;-75
2021/10/27 03:04:37;;;;;;;27.50;17.70;;;102.50;2227.20;;;;;;5094474;28;20110;-78
2021/10/27 03:07:03;;;;;;;26.15;18.25;;;102.40;2227.20;;;;;;5096074;28;20023;-76
2021/10/27 03:09:29;;;;;;;36.88;22.42;;;102.50;2227.20;;;;;;5094832;28;20116;-77
2021/10/27 03:11:54;;;;;;;46.97;26.98;;;102.50;2227.20;;;;;;5095888;28;20047;-75
2021/10/27 03:14:20;;;;;;;31.15;19.60;;;102.40;2227.20;;;;;;5095776;28;20024;-77
2021/10/27 03:16:47;;;;;;;25.90;17.42;;;77.60;2227.20;;;;;;5095558;28;20016;-78
2021/10/27 03:19:12;;;;;;;26.20;18.33;;;77.50;2227.20;;;;;;5094207;28;20024;-75
2021/10/27 03:21:38;;;;;;;25.42;17.15;;;77.60;2227.20;;;;;;5094393;28;20425;-75
2021/10/27 03:24:06;;;;;;;29.85;18.08;;;77.70;2227.20;;;;;;5095417;28;20443;-75
2021/10/27 03:26:31;;;;;;;31.92;18.35;;;102.50;2227.20;;;;;;5094545;28;20482;-77
2021/10/27 03:28:57;;;;;;;25.15;18.05;;;102.40;2227.20;;;;;;5094328;28;20020;-76
2021/10/27 03:31:24;;;;;;;28.10;18.20;;;77.50;2227.20;;;;;;5093969;28;20068;-81
2021/10/27 03:33:50;;;;;;;28.05;17.13;;;77.60;2227.20;;;;;;5094216;28;20037;-80
2021/10/27 03:36:16;;;;;;;29.02;18.92;;;77.60;2227.20;;;;;;5094068;28;20031;-80
2021/10/27 03:38:42;;;;;;;35.22;24.67;;;77.60;2227.20;;;;;;5093791;28;20023;-80
2021/10/27 03:41:08;;;;;;;28.83;18.50;;;77.70;2227.20;;;;;;5093989;28;20020;-78
2021/10/27 03:43:34;;;;;;;26.80;16.77;;;77.60;2227.20;;;;;;5094001;28;20020;-77
2021/10/27 03:46:00;;;;;;;27.48;17.17;;;77.40;2227.20;;;;;;5093707;28;20016;-79
2021/10/27 03:48:26;;;;;;;27.25;17.38;;;77.60;2227.20;;;;;;5093922;28;20026;-80
2021/10/27 03:50:52;;;;;;;25.85;17.25;;;77.60;2227.20;;;;;;5093645;28;20028;-77
2021/10/27 03:53:18;;;;;;;28.75;16.65;;;77.60;2227.20;;;;;;5093497;28;20046;-78
2021/10/27 03:55:44;;;;;;;27.85;18.92;;;77.50;2227.20;;;;;;5093791;28;20016;-80
2021/10/27 03:58:09;;;;;;;30.50;18.33;;;77.50;2227.20;;;;;;5095045;28;20432;-79
2021/10/27 04:00:39;;;;;;;28.40;17.88;;;77.40;2227.20;;;;;;5094338;28;20044;-80
2021/10/27 04:03:06;;;;;;;26.58;16.80;;;77.40;2227.20;;;;;;5094902;28;20028;-81
2021/10/27 04:05:32;;;;;;;27.42;15.32;;;77.50;2227.20;;;;;;5094858;28;20020;-80
2021/10/27 04:07:58;;;;;;;30.23;16.73;;;77.40;2227.20;;;;;;5093345;28;20016;-77
2021/10/27 04:10:24;;;;;;;28.42;16.90;;;77.50;2227.20;;;;;;5093824;28;20363;-80
2021/10/27 04:12:50;;;;;;;28.17;16.98;;;77.50;2227.20;;;;;;5094759;28;20028;-81
2021/10/27 04:15:16;;;;;;;30.33;19.73;;;77.40;2227.20;;;;;;5093167;28;20024;-80
2021/10/27 04:17:42;;;;;;;29.15;19.95;;;77.30;2227.20;;;;;;5093445;28;20028;-79
2021/10/27 04:20:09;;;;;;;27.35;18.35;;;77.10;2227.20;;;;;;5093096;28;20043;-77
2021/10/27 04:22:38;;;;;;;32.63;18.65;;;77.20;2227.20;;;;;;5093179;28;20030;-79
2021/10/27 04:25:06;;;;;;;30.88;20.02;;;77.00;2227.20;;;;;;5094254;28;20099;-77
2021/10/27 04:27:32;;;;;;;28.55;18.95;;;77.10;2227.20;;;;;;5094153;28;20111;-79
2021/10/27 04:29:58;;;;;;;31.67;19.00;;;77.00;2227.20;;;;;;5094579;28;20490;-80
2021/10/27 04:32:24;;;;;;;33.75;22.05;;;77.00;2227.20;;;;;;5093109;28;20447;-77
2021/10/27 04:34:50;;;;;;;37.47;22.50;;;77.10;2227.20;;;;;;5092744;28;20107;-76
2021/10/27 04:37:16;;;;;;;33.97;21.05;;;77.10;2227.20;;;;;;5094351;28;20020;-80
2021/10/27 04:39:42;;;;;;;31.75;20.50;;;77.20;2227.20;;;;;;5093070;28;20090;-81
2021/10/27 04:42:08;;;;;;;36.92;24.08;;;77.40;2227.20;;;;;;5092661;28;20032;-77
2021/10/27 04:44:34;;;;;;;32.33;21.15;;;77.30;2227.20;;;;;;5092943;28;20111;-78
2021/10/27 04:47:03;;;;;;;47.40;33.55;;;77.20;2227.20;;;;;;5092905;28;20431;-79
2021/10/27 04:49:32;;;;;;;130.50;69.85;;;77.10;2227.20;;;;;;5092203;28;20020;-81
2021/10/27 04:51:58;;;;;;;157.73;98.80;;;77.10;2227.20;;;;;;5094171;28;20138;-78
2021/10/27 04:54:25;;;;;;;80.68;48.25;;;77.20;2227.20;;;;;;5093835;28;20020;-77
2021/10/27 04:56:50;;;;;;;42.25;28.90;;;77.20;2227.20;;;;;;5092499;28;20020;-79
2021/10/27 04:59:17;;;;;;;34.28;23.02;;;77.20;2227.20;;;;;;5092781;28;20027;-79
2021/10/27 05:01:46;;;;;;;36.30;26.33;;;77.10;2227.20;;;;;;5092172;28;20047;-79
2021/10/27 05:04:12;;;;;;;37.75;26.13;;;76.80;2227.20;;;;;;5092136;28;20020;-78
2021/10/27 05:06:38;;;;;;;36.28;24.98;;;77.00;2227.20;;;;;;5092641;28;20078;-78
2021/10/27 05:09:04;;;;;;;34.17;21.42;;;77.10;2227.20;;;;;;5093253;28;20055;-80
2021/10/27 05:11:30;;;;;;;37.70;21.25;;;77.00;2227.20;;;;;;5093935;28;20468;-80
2021/10/27 05:13:56;;;;;;;33.65;20.17;;;77.00;2227.20;;;;;;5092609;28;20021;-80
2021/10/27 05:16:21;;;;;;;38.97;23.95;;;77.00;2227.20;;;;;;5092252;28;20024;-77
2021/10/27 05:18:47;;;;;;;37.05;23.77;;;77.00;2227.20;;;;;;5092193;28;20018;-76
2021/10/27 05:21:13;;;;;;;54.88;30.30;;;77.10;2227.20;;;;;;5092480;28;20371;-80
2021/10/27 05:23:39;;;;;;;57.05;35.10;;;77.00;2227.20;;;;;;5093456;28;20100;-79
2021/10/27 05:26:05;;;;;;;50.53;32.20;;;77.00;2227.20;;;;;;5092549;28;20109;-79
2021/10/27 05:28:32;;;;;;;47.83;33.10;;;77.00;2227.20;;;;;;5093739;28;20103;-76
2021/10/27 05:30:58;;;;;;;51.70;34.90;;;77.00;2227.20;;;;;;5092185;28;20027;-79
2021/10/27 05:33:24;;;;;;;52.83;35.05;;;77.00;2227.20;;;;;;5092458;28;20016;-79
2021/10/27 05:35:50;;;;;;;47.92;29.33;;;76.90;2227.20;;;;;;5092406;28;20447;-78
2021/10/27 05:38:15;;;;;;;44.50;30.08;;;76.90;2227.20;;;;;;5091844;28;20020;-79
2021/10/27 05:40:41;;;;;;;50.90;31.35;;;76.90;2227.20;;;;;;5093663;28;20047;-77
2021/10/27 05:43:10;;;;;;;47.40;31.58;;;77.10;2227.20;;;;;;5092234;28;20035;-79
2021/10/27 05:45:37;;;;;;;49.97;32.00;;;77.00;2227.20;;;;;;5093336;28;20027;-76
2021/10/27 05:48:04;;;;;;;61.85;40.60;;;77.00;2227.20;;;;;;5093537;28;20020;-80
2021/10/27 05:55:41;;;;;;;58.22;39.70;;;77.20;2227.20;;;;;;5093254;28;20027;-78
2021/10/27 05:58:09;;;;;;;70.85;44.58;;;77.30;2227.20;;;;;;5091804;28;20166;-77
2021/10/27 06:00:36;;;;;;;62.22;40.03;;;77.30;2227.20;;;;;;5093791;28;20044;-78
2021/10/27 06:03:02;;;;;;;55.63;37.25;;;77.20;2227.20;;;;;;5096037;28;20119;-80
2021/10/27 06:05:29;;;;;;;52.47;34.63;;;77.30;2227.20;;;;;;5096827;28;20095;-79
2021/10/27 06:07:55;;;;;;;68.15;40.90;;;77.20;2227.20;;;;;;5095846;28;20430;-76
2021/10/27 06:10:22;;;;;;;63.78;40.85;;;77.10;2227.20;;;;;;5095776;28;20020;-78
2021/10/27 06:12:55;;;;;;;55.50;36.97;;;77.30;2227.20;;;;;;5096988;28;20031;-76
2021/10/27 06:15:22;;;;;;;59.90;39.28;;;77.30;2227.20;;;;;;5095735;28;20028;-77
2021/10/27 06:17:49;;;;;;;60.92;39.50;;;77.20;2227.20;;;;;;5095701;28;20440;-75
2021/10/27 06:20:15;;;;;;;61.03;39.08;;;77.20;2227.20;;;;;;5096895;28;20027;-80
2021/10/27 06:22:43;;;;;;;63.67;38.85;;;77.30;2227.20;;;;;;5095620;28;20496;-77
2021/10/27 06:25:11;;;;;;;61.00;37.33;;;77.30;2227.20;;;;;;5095404;28;20051;-78
2021/10/27 06:27:39;;;;;;;59.50;40.08;;;77.40;2227.20;;;;;;5095253;28;20043;-79
2021/10/27 06:30:13;;;;;;;103.80;66.88;;;77.40;2227.20;;;;;;5095571;28;20024;-79
2021/10/27 06:32:51;;;;;;;85.45;61.60;;;77.50;2227.20;;;;;;5095318;28;20027;-76
2021/10/27 06:35:30;;;;;;;76.13;51.67;;;77.30;2227.20;;;;;;5095006;28;20452;-76
2021/10/27 06:48:50;;;;;;;51.50;33.25;;;77.50;2227.20;;;;;;5096229;28;20031;-77
2021/10/27 06:51:16;;;;;;;49.25;33.65;;;77.50;2227.20;;;;;;5095023;28;20371;-78
2021/10/27 06:53:43;;;;;;;55.13;34.40;;;77.70;2227.20;;;;;;5095271;28;20088;-79
2021/10/27 06:56:13;;;;;;;57.97;38.50;;;102.90;2227.20;;;;;;5095961;28;20076;-76
2021/10/27 06:58:46;;;;;;;57.47;37.25;;;102.50;2227.20;;;;;;5095022;28;20096;-76
2021/10/27 07:17:03;;;;;;;44.72;30.20;;;102.70;2227.20;;;;;;5095674;28;20076;-78
2021/10/27 07:19:29;;;;;;;53.40;39.00;;;102.80;2227.20;;;;;;5094646;28;20110;-76
2021/10/27 07:21:54;;;;;;;54.97;35.80;;;102.80;2227.20;;;;;;5094445;28;20348;-78
2021/10/27 07:24:20;;;;;;;53.30;37.88;;;102.90;2227.20;;;;;;5094158;28;20456;-78
2021/10/27 07:26:46;;;;;;;57.55;38.70;;;102.90;2227.20;;;;;;5094421;28;20024;-81
2021/10/27 07:29:18;;;;;;;49.22;33.42;;;103.00;2227.20;;;;;;5095011;28;20024;-77
2021/10/27 07:31:44;;;;;;;60.28;39.15;;;103.10;2227.20;;;;;;5094437;28;20028;-78
2021/10/27 07:34:12;;;;;;;75.30;46.70;;;103.00;2227.20;;;;;;5094329;28;20412;-79
2021/10/27 07:41:51;;;;;;;61.88;41.38;;;128.00;2252.80;;;;;;5095269;28;20167;-75
2021/10/27 07:44:18;;;;;;;60.70;42.03;;;128.10;2252.80;;;;;;5093871;28;20020;-75
2021/10/27 07:46:45;;;;;;;46.75;33.70;;;128.20;2252.80;;;;;;5095498;28;20020;-76
2021/10/27 07:49:11;;;;;;;41.17;27.33;;;128.30;2252.80;;;;;;5094239;28;20034;-76
2021/10/27 07:51:37;;;;;;;45.35;34.30;;;128.40;2252.80;;;;;;5093580;28;20442;-75
2021/10/27 07:54:05;;;;;;;40.50;27.95;;;128.50;2252.80;;;;;;5093870;28;20107;-76
2021/10/27 07:56:32;;;;;;;48.45;34.25;;;128.70;2252.80;;;;;;5095108;28;20428;-74
2021/10/27 07:59:00;;;;;;;53.63;36.33;;;128.90;2252.80;;;;;;5095054;28;20031;-76
2021/10/27 08:01:26;;;;;;;44.88;31.80;;;153.60;2252.80;;;;;;5093411;28;20040;-75
2021/10/27 08:03:52;;;;;;;58.05;36.30;;;153.70;2252.80;;;;;;5093650;28;20055;-73
2021/10/27 08:06:18;;;;;;;55.47;36.83;;;153.90;2252.80;;;;;;5093382;28;20024;-73
2021/10/27 08:08:44;;;;;;;51.70;35.30;;;154.00;2252.80;;;;;;5093536;28;20072;-73
2021/10/27 08:11:11;;;;;;;76.63;47.90;;;154.10;2252.80;;;;;;5094587;28;20024;-74
2021/10/27 08:13:37;;;;;;;55.90;37.50;;;154.30;2252.80;;;;;;5094764;28;20027;-73
2021/10/27 08:16:04;;;;;;;58.22;36.65;;;154.40;2252.80;;;;;;5093423;28;20044;-73
2021/10/27 08:18:29;;;;;;;65.05;38.67;;;154.50;2252.80;;;;;;5094414;28;20066;-73
2021/10/27 08:20:55;;;;;;;51.63;35.45;;;179.20;2252.80;;;;;;5093047;28;20027;-73
2021/10/27 08:23:26;;;;;;;53.05;34.10;;;179.40;2252.80;;;;;;5092379;28;20035;-74
2021/10/27 08:25:55;;;;;;;46.85;31.50;;;179.50;2252.80;;;;;;5093112;28;20035;-73
2021/10/27 08:28:38;;;;;;;44.55;31.92;;;179.60;2252.80;;;;;;5094525;28;20047;-74
2021/10/27 08:31:09;;;;;;;;;;;179.70;2252.80;;;;;;5094956;28;20069;-75
2021/10/27 08:33:44;;;;;;;43.05;28.52;;;179.90;2252.80;;;;;;5094148;28;19899;-74
2021/10/27 08:36:10;;;;;;;51.05;33.75;;;180.00;2252.80;;;;;;5092501;28;20103;-75
2021/10/27 08:38:36;;;;;;;42.97;30.63;;;180.10;2252.80;;;;;;5092957;28;20054;-75
2021/10/27 08:41:03;;;;;;;53.90;40.95;;;204.90;2252.80;;;;;;5093646;28;20035;-74
2021/10/27 08:43:30;;;;;;;35.60;27.83;;;205.00;2252.80;;;;;;5093948;28;20452;-74
2021/10/27 08:45:57;;;;;;;35.42;25.15;;;205.20;2252.80;;;;;;5093470;28;20016;-74
2021/10/27 08:48:24;;;;;;;28.73;21.42;;;205.30;2252.80;;;;;;5094083;28;20084;-73
2021/10/27 08:50:51;;;;;;;35.30;22.95;;;205.40;2252.80;;;;;;5094473;28;20371;-73
2021/10/27 08:53:21;;;;;;;38.17;29.27;;;205.50;2252.80;;;;;;5092563;28;20549;-75
2021/10/27 08:55:50;;;;;;;34.15;23.23;;;205.70;2252.80;;;;;;5094072;28;20020;-74
2021/10/27 08:58:24;;;;;;;33.85;23.52;;;230.80;2252.80;;;;;;5094413;28;20016;-75
2021/10/27 09:03:36;;;;;;;29.45;19.65;;;230.70;2252.80;;;;;;5093112;28;20032;-74
2021/10/27 09:06:21;;;;;;;31.35;20.02;;;230.90;2252.80;;;;;;5092363;28;20047;-74
2021/10/27 09:40:34;;;;;;;61.20;37.45;;;281.90;2278.40;;;;;;5084937;28;20032;-74
2021/10/27 09:43:32;;;;;;;21.85;17.00;;;282.10;2278.40;;;;;;5097217;28;20031;-74
2021/10/27 10:05:04;;;;;;;37.88;28.80;;;307.20;2304.00;;;;;;5096767;28;20081;-74
2021/10/27 10:07:30;;;;;;;36.33;24.40;;;307.20;2304.00;;;;;;5097194;28;20020;-74
2021/10/27 10:10:01;;;;;;;18.25;12.23;;;307.40;2304.00;;;;;;5095744;28;20031;-74
2021/10/27 10:12:27;;;;;;;17.70;10.02;;;307.20;2304.00;;;;;;5095739;28;20028;-73
2021/10/27 10:14:54;;;;;;;15.70;13.23;;;307.40;2304.00;;;;;;5097134;28;20053;-73
2021/10/27 10:17:20;;;;;;;15.38;12.93;;;307.50;2304.00;;;;;;5095424;28;20027;-73
2021/10/27 10:19:49;;;;;;;17.73;13.20;;;307.50;2304.00;;;;;;5095631;28;20020;-74
2021/10/27 10:22:35;;;;;;;22.67;14.20;;;307.80;2304.00;;;;;;5096834;28;20028;-74
2021/10/27 10:25:22;;;;;;;21.77;14.20;;;308.10;2304.00;;;;;;5096401;28;20368;-75
2021/10/27 10:27:55;;;;;;;32.50;23.73;;;332.80;2329.60;;;;;;5096912;28;20447;-75
2021/10/27 10:30:30;;;;;;;22.10;15.60;;;332.90;2329.60;;;;;;5096855;28;20019;-75
2021/10/27 10:33:15;;;;;;;28.05;19.25;;;332.90;2329.60;;;;;;5095237;28;20031;-78
2021/10/27 10:36:04;;;;;;;22.67;16.88;;;332.90;2329.60;;;;;;5095416;28;20110;-76
2021/10/27 10:41:43;;;;;;;15.13;9.88;;;332.90;2329.60;;;;;;5096515;28;20016;-74
2021/10/27 10:56:52;;;;;;;23.40;14.75;;;333.50;2329.60;;;;;;5096420;28;20074;-75
2021/10/27 11:41:28;;;;;;;51.67;32.90;;;435.30;2099.20;;;;;;5095220;28;20429;-75
2021/10/27 11:46:58;;;;;;;30.88;21.33;;;435.60;2073.60;;;;;;5082669;28;20032;-75
2021/10/27 11:49:39;;;;;;;21.52;16.83;;;435.90;2048.00;;;;;;5093699;28;20409;-75
2021/10/27 11:52:05;;;;;;;18.30;13.63;;;435.90;2022.40;;;;;;5093891;28;20473;-75
2021/10/27 11:54:32;;;;;;;13.32;9.43;;;436.00;1945.60;;;;;;5093848;28;20020;-75
2021/10/27 11:57:02;;;;;;;24.40;13.50;;;435.90;1920.00;;;;;;5093472;28;20023;-75
2021/10/27 11:59:58;;;;;;;12.85;9.93;;;436.10;1868.80;;;;;;5093720;28;20140;-74
2021/10/27 12:02:25;;;;;;;16.27;11.07;;;460.80;1894.40;;;;;;5088458;28;20044;-75
2021/10/27 12:04:55;;;;;;;28.08;19.83;;;436.10;1894.40;;;;;;5094962;28;20024;-77
2021/10/27 12:07:55;;;;;;;23.02;19.08;;;461.00;1920.00;;;;;;5093681;28;20024;-76
2021/10/27 12:10:39;;;;;;;23.55;15.27;;;461.10;1868.80;;;;;;5094229;28;20024;-75
2021/10/27 12:13:05;;;;;;;22.65;17.60;;;461.40;1894.40;;;;;;5093304;28;20028;-76
2021/10/27 12:18:05;;;;;;;26.30;20.83;;;461.50;1920.00;;;;;;5094401;28;20020;-75
2021/10/27 12:20:38;;;;;;;20.45;16.15;;;461.50;1894.40;;;;;;5094646;28;20456;-76
2021/10/27 12:23:15;;;;;;;29.85;23.70;;;461.50;1894.40;;;;;;5092771;28;20024;-76
2021/10/27 12:25:42;;;;;;;27.20;21.75;;;461.70;1843.20;;;;;;5093350;28;20028;-75
2021/10/27 12:28:30;;;;;;;22.30;16.92;;;486.40;1868.80;;;;;;5094571;28;20093;-76
2021/10/27 12:30:57;;;;;;;23.20;19.80;;;461.70;1843.20;;;;;;5092764;28;20024;-77
2021/10/27 12:33:40;;;;;;;26.48;21.70;;;461.70;1843.20;;;;;;5093008;28;20440;-76
2021/10/27 12:36:33;;;;;;;31.48;26.50;;;486.50;1868.80;;;;;;5094263;28;20016;-77
2021/10/27 12:39:33;;;;;;;20.40;18.20;;;486.60;1843.20;;;;;;5092611;28;20078;-77
2021/10/27 12:42:10;;;;;;;54.80;45.00;;;486.50;1843.20;;;;;;5094008;28;20081;-74
2021/10/27 12:44:49;;;;;;;41.38;32.95;;;486.70;1843.20;;;;;;5092393;28;20023;-76
2021/10/27 12:47:27;;;;;;;24.52;18.95;;;486.80;1843.20;;;;;;5093927;28;20069;-77
2021/10/27 12:50:18;;;;;;;37.40;24.70;;;486.70;1843.20;;;;;;5092891;28;20016;-77
2021/10/27 12:52:58;;;;;;;37.50;27.70;;;486.60;1868.80;;;;;;5093918;28;20163;-78
2021/10/27 12:55:24;;;;;;;26.65;23.02;;;486.50;1868.80;;;;;;5092656;28;20024;-74
2021/10/27 12:57:54;;;;;;;33.08;27.38;;;461.70;1894.40;;;;;;5092753;28;20478;-75
2021/10/27 13:00:23;;;;;;;33.97;25.65;;;461.70;1894.40;;;;;;5092174;28;20044;-74
2021/10/27 13:03:13;;;;;;;27.55;22.02;;;461.60;1894.40;;;;;;5092264;28;20114;-77
2021/10/27 13:05:43;;;;;;;39.38;29.77;;;461.60;1920.00;;;;;;5092451;28;20027;-77
2021/10/27 13:08:33;;;;;;;20.25;16.25;;;461.50;1894.40;;;;;;5092304;28;20024;-76
2021/10/27 13:21:42;;;;;;;62.35;46.40;;;461.40;1868.80;;;;;;5093787;28;20068;-77
2021/10/27 13:32:23;;;;;;;39.35;31.63;;;461.40;1843.20;;;;;;5094046;28;20031;-76
2021/10/27 13:34:50;;;;;;;46.25;34.75;;;461.20;1843.20;;;;;;5091866;28;20023;-76
2021/10/27 13:37:18;;;;;;;49.03;40.00;;;461.30;1868.80;;;;;;5092312;28;20027;-77
2021/10/27 13:39:44;;;;;;;60.65;49.70;;;461.30;1868.80;;;;;;5093552;28;20431;-78
2021/10/27 13:45:34;;;;;;;71.43;56.63;;;461.30;1817.60;;;;;;5093602;28;20028;-76
2021/10/27 13:47:40;;;;;;;37.97;29.75;;;461.20;1792.00;;;;;;5088898;28;20107;-75
2021/10/27 14:06:30;;;;;;;42.80;31.60;;;410.40;1920.00;;;;;;5093305;28;20513;-76
2021/10/27 14:11:30;;;;;;;37.67;27.73;;;410.00;1996.80;;;;;;5093004;28;20024;-75
2021/10/27 15:22:18;;;;;;;36.35;28.15;;;333.40;2329.60;;;;;;5095833;28;20028;-74
2021/10/27 15:33:04;;;;;;;30.83;22.88;;;333.10;2329.60;;;;;;5095051;28;20107;-76
2021/10/27 15:35:58;;;;;;;36.53;26.52;;;333.10;2329.60;;;;;;5095635;28;20016;-75
2021/10/27 15:51:56;;;;;;;89.57;51.00;;;308.00;2304.00;;;;;;5095345;28;20071;-75
2021/10/27 15:54:22;;;;;;;71.25;44.50;;;307.90;2304.00;;;;;;5094605;28;20024;-75
2021/10/27 15:56:48;;;;;;;72.28;44.03;;;307.80;2304.00;;;;;;5093844;28;20027;-75
2021/10/27 15:59:14;;;;;;;55.00;38.83;;;307.70;2304.00;;;;;;5093816;28;20115;-75
2021/10/27 16:01:40;;;;;;;53.35;37.17;;;307.70;2304.00;;;;;;5092968;28;20075;-74
2021/10/27 16:04:06;;;;;;;50.13;34.78;;;307.70;2304.00;;;;;;5093757;28;20016;-74
2021/10/27 16:06:50;;;;;;;43.33;30.75;;;307.70;2304.00;;;;;;5095246;28;20098;-75
2021/10/27 16:09:16;;;;;;;42.75;30.13;;;307.60;2304.00;;;;;;5093280;28;20475;-77
2021/10/27 16:11:43;;;;;;;47.05;36.25;;;307.60;2304.00;;;;;;5094417;28;20020;-75
2021/10/27 16:14:09;;;;;;;45.38;36.38;;;307.60;2304.00;;;;;;5094228;28;20364;-75
2021/10/27 16:16:35;;;;;;;56.05;43.33;;;307.50;2304.00;;;;;;5093545;28;20424;-75
2021/10/27 16:19:01;;;;;;;74.38;57.78;;;307.50;2304.00;;;;;;5093368;28;20347;-74
2021/10/27 16:21:28;;;;;;;76.32;52.83;;;307.50;2304.00;;;;;;5093053;28;20082;-75
2021/10/27 16:23:56;;;;;;;54.78;41.15;;;307.40;2304.00;;;;;;5093394;28;20016;-74
2021/10/27 16:26:22;;;;;;;60.70;44.22;;;307.40;2304.00;;;;;;5093336;28;20023;-75
2021/10/27 16:28:48;;;;;;;55.67;41.90;;;307.40;2304.00;;;;;;5092954;28;20046;-74
2021/10/27 16:31:15;;;;;;;75.40;50.15;;;307.50;2304.00;;;;;;5094525;28;20027;-75
2021/10/27 16:33:44;;;;;;;90.53;58.00;;;307.50;2304.00;;;;;;5094203;28;20020;-74
2021/10/27 16:36:11;;;;;;;165.18;115.63;;;307.40;2304.00;;;;;;5094446;28;20076;-76
2021/10/27 16:38:39;;;;;;;185.18;134.30;;;307.30;2304.00;;;;;;5093041;28;20582;-75
2021/10/27 16:41:05;;;;;;;198.05;132.10;;;307.20;2304.00;;;;;;5093095;28;20024;-75
2021/10/27 16:43:31;;;;;;;202.63;139.55;;;282.50;2278.40;;;;;;5093047;28;20035;-75
2021/10/27 16:45:57;;;;;;;239.38;165.77;;;282.50;2278.40;;;;;;5092885;28;20031;-74
2021/10/27 16:48:26;;;;;;;225.77;158.18;;;282.40;2278.40;;;;;;5092928;28;20375;-76
2021/10/27 16:50:53;;;;;;;156.75;109.43;;;282.30;2278.40;;;;;;5092708;28;20425;-74
2021/10/27 16:53:20;;;;;;;139.95;100.45;;;282.20;2278.40;;;;;;5092844;28;20024;-74